sensor_id;sensor_type;location;lat;lon;timestamp;P1;durP1;ratioP1;P2;durP2;ratioP2
57395;SDS011;43222;52.912;6.940;2023-07-30T00:00:56;11.45;;;4.78;;
57395;SDS011;43222;52.912;6.940;2023-07-30T00:03:22;12.45;;;5.00;;
57395;SDS011;43222;52.912;6.940;2023-07-30T00:05:55;11.63;;;4.88;;
57395;SDS011;43222;52.912;6.940;2023-07-30T00:08:21;9.95;;;4.40;;
57395;SDS011;43222;52.912;6.940;2023-07-30T00:10:47;13.65;;;4.63;;
57395;SDS011;43222;52.912;6.940;2023-07-30T00:13:13;12.02;;;4.28;;
57395;SDS011;43222;52.912;6.940;2023-07-30T00:15:39;9.32;;;4.50;;
57395;SDS011;43222;52.912;6.940;2023-07-30T00:18:05;13.68;;;4.63;;
57395;SDS011;43222;52.912;6.940;2023-07-30T00:20:33;13.45;;;4.40;;
57395;SDS011;43222;52.912;6.940;2023-07-30T00:23:00;12.13;;;4.30;;
57395;SDS011;43222;52.912;6.940;2023-07-30T00:25:26;13.40;;;4.75;;
57395;SDS011;43222;52.912;6.940;2023-07-30T00:27:52;11.68;;;4.03;;
57395;SDS011;43222;52.912;6.940;2023-07-30T00:30:18;11.10;;;4.45;;
57395;SDS011;43222;52.912;6.940;2023-07-30T00:32:44;11.00;;;4.25;;
57395;SDS011;43222;52.912;6.940;2023-07-30T00:35:10;13.45;;;4.45;;
57395;SDS011;43222;52.912;6.940;2023-07-30T00:37:37;13.10;;;4.38;;
57395;SDS011;43222;52.912;6.940;2023-07-30T00:40:03;15.15;;;4.38;;
57395;SDS011;43222;52.912;6.940;2023-07-30T00:42:29;10.70;;;4.20;;
57395;SDS011;43222;52.912;6.940;2023-07-30T00:44:55;12.05;;;4.55;;
57395;SDS011;43222;52.912;6.940;2023-07-30T00:47:21;13.10;;;4.50;;
57395;SDS011;43222;52.912;6.940;2023-07-30T00:49:48;15.25;;;4.28;;
57395;SDS011;43222;52.912;6.940;2023-07-30T00:52:15;16.00;;;4.60;;
57395;SDS011;43222;52.912;6.940;2023-07-30T00:54:41;15.40;;;4.40;;
57395;SDS011;43222;52.912;6.940;2023-07-30T00:57:07;18.65;;;5.10;;
57395;SDS011;43222;52.912;6.940;2023-07-30T00:59:34;12.82;;;4.57;;
57395;SDS011;43222;52.912;6.940;2023-07-30T01:02:00;15.60;;;4.40;;
57395;SDS011;43222;52.912;6.940;2023-07-30T01:04:28;12.98;;;4.88;;
57395;SDS011;43222;52.912;6.940;2023-07-30T01:06:54;14.95;;;4.40;;
57395;SDS011;43222;52.912;6.940;2023-07-30T01:09:20;14.15;;;4.63;;
57395;SDS011;43222;52.912;6.940;2023-07-30T01:11:46;17.20;;;5.00;;
57395;SDS011;43222;52.912;6.940;2023-07-30T01:14:13;14.35;;;4.82;;
57395;SDS011;43222;52.912;6.940;2023-07-30T01:16:40;14.90;;;4.82;;
57395;SDS011;43222;52.912;6.940;2023-07-30T01:19:06;12.80;;;4.78;;
57395;SDS011;43222;52.912;6.940;2023-07-30T01:21:33;15.63;;;4.78;;
57395;SDS011;43222;52.912;6.940;2023-07-30T01:23:59;13.75;;;4.90;;
57395;SDS011;43222;52.912;6.940;2023-07-30T01:26:27;14.45;;;5.07;;
57395;SDS011;43222;52.912;6.940;2023-07-30T01:28:56;11.55;;;4.50;;
57395;SDS011;43222;52.912;6.940;2023-07-30T01:31:24;14.95;;;4.93;;
57395;SDS011;43222;52.912;6.940;2023-07-30T01:33:52;13.73;;;5.15;;
57395;SDS011;43222;52.912;6.940;2023-07-30T01:36:20;20.73;;;5.70;;
57395;SDS011;43222;52.912;6.940;2023-07-30T01:38:47;14.88;;;4.97;;
57395;SDS011;43222;52.912;6.940;2023-07-30T01:41:13;16.70;;;5.32;;
57395;SDS011;43222;52.912;6.940;2023-07-30T01:43:39;12.93;;;4.95;;
57395;SDS011;43222;52.912;6.940;2023-07-30T01:46:05;14.75;;;4.93;;
57395;SDS011;43222;52.912;6.940;2023-07-30T01:48:31;15.13;;;5.20;;
57395;SDS011;43222;52.912;6.940;2023-07-30T01:50:57;12.00;;;4.30;;
57395;SDS011;43222;52.912;6.940;2023-07-30T01:53:24;16.08;;;4.93;;
57395;SDS011;43222;52.912;6.940;2023-07-30T01:55:50;15.20;;;4.72;;
57395;SDS011;43222;52.912;6.940;2023-07-30T01:58:16;16.40;;;4.70;;
57395;SDS011;43222;52.912;6.940;2023-07-30T02:00:42;14.68;;;5.00;;
57395;SDS011;43222;52.912;6.940;2023-07-30T02:03:08;11.25;;;4.20;;
57395;SDS011;43222;52.912;6.940;2023-07-30T02:05:34;13.55;;;4.80;;
57395;SDS011;43222;52.912;6.940;2023-07-30T02:08:00;16.33;;;4.63;;
57395;SDS011;43222;52.912;6.940;2023-07-30T02:10:26;17.85;;;5.15;;
57395;SDS011;43222;52.912;6.940;2023-07-30T02:12:52;12.57;;;4.47;;
57395;SDS011;43222;52.912;6.940;2023-07-30T02:15:19;15.48;;;4.40;;
57395;SDS011;43222;52.912;6.940;2023-07-30T02:17:45;14.02;;;4.50;;
57395;SDS011;43222;52.912;6.940;2023-07-30T02:20:11;14.23;;;4.70;;
57395;SDS011;43222;52.912;6.940;2023-07-30T02:22:37;15.05;;;4.65;;
57395;SDS011;43222;52.912;6.940;2023-07-30T02:25:03;14.52;;;3.75;;
57395;SDS011;43222;52.912;6.940;2023-07-30T02:27:29;13.32;;;4.10;;
57395;SDS011;43222;52.912;6.940;2023-07-30T02:29:55;12.52;;;3.67;;
57395;SDS011;43222;52.912;6.940;2023-07-30T02:32:21;16.50;;;4.32;;
57395;SDS011;43222;52.912;6.940;2023-07-30T02:34:48;14.25;;;4.25;;
57395;SDS011;43222;52.912;6.940;2023-07-30T02:37:14;17.33;;;4.78;;
57395;SDS011;43222;52.912;6.940;2023-07-30T02:39:40;13.43;;;4.43;;
57395;SDS011;43222;52.912;6.940;2023-07-30T02:42:06;14.00;;;4.35;;
57395;SDS011;43222;52.912;6.940;2023-07-30T02:44:32;18.15;;;3.65;;
57395;SDS011;43222;52.912;6.940;2023-07-30T02:46:58;14.52;;;3.78;;
57395;SDS011;43222;52.912;6.940;2023-07-30T02:49:24;10.77;;;3.45;;
57395;SDS011;43222;52.912;6.940;2023-07-30T02:51:50;15.82;;;3.92;;
57395;SDS011;43222;52.912;6.940;2023-07-30T02:54:16;12.25;;;3.72;;
57395;SDS011;43222;52.912;6.940;2023-07-30T02:56:45;12.77;;;3.90;;
57395;SDS011;43222;52.912;6.940;2023-07-30T02:59:11;12.20;;;3.60;;
57395;SDS011;43222;52.912;6.940;2023-07-30T03:01:38;13.23;;;3.58;;
57395;SDS011;43222;52.912;6.940;2023-07-30T03:04:04;15.40;;;4.07;;
57395;SDS011;43222;52.912;6.940;2023-07-30T03:06:30;14.05;;;3.75;;
57395;SDS011;43222;52.912;6.940;2023-07-30T03:08:56;14.15;;;3.53;;
57395;SDS011;43222;52.912;6.940;2023-07-30T03:11:22;13.57;;;3.78;;
57395;SDS011;43222;52.912;6.940;2023-07-30T03:13:49;15.25;;;3.90;;
57395;SDS011;43222;52.912;6.940;2023-07-30T03:16:15;14.77;;;3.90;;
57395;SDS011;43222;52.912;6.940;2023-07-30T03:18:41;12.52;;;3.80;;
57395;SDS011;43222;52.912;6.940;2023-07-30T03:21:07;12.90;;;3.72;;
57395;SDS011;43222;52.912;6.940;2023-07-30T03:23:33;14.63;;;3.70;;
57395;SDS011;43222;52.912;6.940;2023-07-30T03:25:59;12.43;;;3.75;;
57395;SDS011;43222;52.912;6.940;2023-07-30T03:28:25;12.48;;;3.85;;
57395;SDS011;43222;52.912;6.940;2023-07-30T03:30:51;14.88;;;3.58;;
57395;SDS011;43222;52.912;6.940;2023-07-30T03:33:18;12.15;;;3.70;;
57395;SDS011;43222;52.912;6.940;2023-07-30T03:35:44;14.20;;;3.65;;
57395;SDS011;43222;52.912;6.940;2023-07-30T03:38:10;12.68;;;3.58;;
57395;SDS011;43222;52.912;6.940;2023-07-30T03:40:36;15.90;;;3.63;;
57395;SDS011;43222;52.912;6.940;2023-07-30T03:43:02;12.75;;;4.05;;
57395;SDS011;43222;52.912;6.940;2023-07-30T03:45:28;11.73;;;3.67;;
57395;SDS011;43222;52.912;6.940;2023-07-30T03:47:54;11.73;;;3.25;;
57395;SDS011;43222;52.912;6.940;2023-07-30T03:50:20;12.13;;;3.40;;
57395;SDS011;43222;52.912;6.940;2023-07-30T03:52:46;11.57;;;3.65;;
57395;SDS011;43222;52.912;6.940;2023-07-30T03:55:12;12.38;;;3.63;;
57395;SDS011;43222;52.912;6.940;2023-07-30T03:57:39;12.55;;;3.40;;
57395;SDS011;43222;52.912;6.940;2023-07-30T04:00:05;12.20;;;3.47;;
57395;SDS011;43222;52.912;6.940;2023-07-30T04:02:31;10.68;;;3.30;;
57395;SDS011;43222;52.912;6.940;2023-07-30T04:04:57;13.00;;;4.13;;
57395;SDS011;43222;52.912;6.940;2023-07-30T04:07:23;14.73;;;3.60;;
57395;SDS011;43222;52.912;6.940;2023-07-30T04:09:49;14.07;;;3.83;;
57395;SDS011;43222;52.912;6.940;2023-07-30T04:12:15;12.10;;;3.88;;
57395;SDS011;43222;52.912;6.940;2023-07-30T04:14:41;13.63;;;3.63;;
57395;SDS011;43222;52.912;6.940;2023-07-30T04:17:07;12.35;;;3.85;;
57395;SDS011;43222;52.912;6.940;2023-07-30T04:19:33;18.17;;;4.43;;
57395;SDS011;43222;52.912;6.940;2023-07-30T04:21:59;10.15;;;3.30;;
57395;SDS011;43222;52.912;6.940;2023-07-30T04:24:26;12.93;;;4.32;;
57395;SDS011;43222;52.912;6.940;2023-07-30T04:26:52;13.30;;;4.32;;
57395;SDS011;43222;52.912;6.940;2023-07-30T04:29:18;12.88;;;3.97;;
57395;SDS011;43222;52.912;6.940;2023-07-30T04:31:44;13.27;;;4.15;;
57395;SDS011;43222;52.912;6.940;2023-07-30T04:34:10;14.80;;;3.97;;
57395;SDS011;43222;52.912;6.940;2023-07-30T04:36:36;10.85;;;4.10;;
57395;SDS011;43222;52.912;6.940;2023-07-30T04:39:02;12.82;;;4.15;;
57395;SDS011;43222;52.912;6.940;2023-07-30T04:41:28;12.93;;;4.90;;
57395;SDS011;43222;52.912;6.940;2023-07-30T04:43:55;13.27;;;4.20;;
57395;SDS011;43222;52.912;6.940;2023-07-30T04:46:21;13.65;;;4.25;;
57395;SDS011;43222;52.912;6.940;2023-07-30T04:48:47;16.83;;;4.53;;
57395;SDS011;43222;52.912;6.940;2023-07-30T04:51:13;13.90;;;4.50;;
57395;SDS011;43222;52.912;6.940;2023-07-30T04:53:39;11.05;;;4.03;;
57395;SDS011;43222;52.912;6.940;2023-07-30T04:56:05;15.20;;;4.20;;
57395;SDS011;43222;52.912;6.940;2023-07-30T04:58:31;14.48;;;4.53;;
57395;SDS011;43222;52.912;6.940;2023-07-30T05:00:58;12.85;;;4.85;;
57395;SDS011;43222;52.912;6.940;2023-07-30T05:03:24;14.18;;;4.60;;
57395;SDS011;43222;52.912;6.940;2023-07-30T05:05:53;18.98;;;4.88;;
57395;SDS011;43222;52.912;6.940;2023-07-30T05:08:19;13.30;;;4.13;;
57395;SDS011;43222;52.912;6.940;2023-07-30T05:10:45;15.02;;;4.57;;
57395;SDS011;43222;52.912;6.940;2023-07-30T05:13:11;18.73;;;5.00;;
57395;SDS011;43222;52.912;6.940;2023-07-30T05:15:38;18.85;;;5.03;;
57395;SDS011;43222;52.912;6.940;2023-07-30T05:18:04;14.32;;;4.40;;
57395;SDS011;43222;52.912;6.940;2023-07-30T05:20:30;15.93;;;4.32;;
57395;SDS011;43222;52.912;6.940;2023-07-30T05:22:56;12.73;;;4.70;;
57395;SDS011;43222;52.912;6.940;2023-07-30T05:25:22;15.63;;;5.05;;
57395;SDS011;43222;52.912;6.940;2023-07-30T05:27:48;13.80;;;4.75;;
57395;SDS011;43222;52.912;6.940;2023-07-30T05:30:14;15.63;;;4.43;;
57395;SDS011;43222;52.912;6.940;2023-07-30T05:32:40;18.00;;;4.80;;
57395;SDS011;43222;52.912;6.940;2023-07-30T05:35:07;15.20;;;4.50;;
57395;SDS011;43222;52.912;6.940;2023-07-30T05:37:33;17.15;;;5.55;;
57395;SDS011;43222;52.912;6.940;2023-07-30T05:39:59;15.95;;;4.50;;
57395;SDS011;43222;52.912;6.940;2023-07-30T05:42:25;16.30;;;4.88;;
57395;SDS011;43222;52.912;6.940;2023-07-30T05:44:51;15.85;;;4.75;;
57395;SDS011;43222;52.912;6.940;2023-07-30T05:47:17;13.30;;;4.47;;
57395;SDS011;43222;52.912;6.940;2023-07-30T05:49:44;17.55;;;5.03;;
57395;SDS011;43222;52.912;6.940;2023-07-30T05:52:10;16.65;;;5.35;;
57395;SDS011;43222;52.912;6.940;2023-07-30T05:54:36;15.57;;;5.35;;
57395;SDS011;43222;52.912;6.940;2023-07-30T05:57:02;16.50;;;5.35;;
57395;SDS011;43222;52.912;6.940;2023-07-30T05:59:28;16.92;;;5.03;;
57395;SDS011;43222;52.912;6.940;2023-07-30T06:01:55;20.10;;;5.57;;
57395;SDS011;43222;52.912;6.940;2023-07-30T06:04:24;16.25;;;4.80;;
57395;SDS011;43222;52.912;6.940;2023-07-30T06:06:50;14.70;;;5.45;;
57395;SDS011;43222;52.912;6.940;2023-07-30T06:09:16;19.50;;;4.82;;
57395;SDS011;43222;52.912;6.940;2023-07-30T06:11:42;17.25;;;4.57;;
57395;SDS011;43222;52.912;6.940;2023-07-30T06:14:08;17.92;;;5.70;;
57395;SDS011;43222;52.912;6.940;2023-07-30T06:16:34;16.00;;;5.47;;
57395;SDS011;43222;52.912;6.940;2023-07-30T06:19:00;14.52;;;5.05;;
57395;SDS011;43222;52.912;6.940;2023-07-30T06:21:26;15.75;;;4.68;;
57395;SDS011;43222;52.912;6.940;2023-07-30T06:23:52;14.65;;;4.70;;
57395;SDS011;43222;52.912;6.940;2023-07-30T06:26:19;16.15;;;5.10;;
57395;SDS011;43222;52.912;6.940;2023-07-30T06:28:45;15.23;;;4.55;;
57395;SDS011;43222;52.912;6.940;2023-07-30T06:31:11;18.25;;;5.25;;
57395;SDS011;43222;52.912;6.940;2023-07-30T06:33:37;17.10;;;4.78;;
57395;SDS011;43222;52.912;6.940;2023-07-30T06:36:03;21.25;;;5.70;;
57395;SDS011;43222;52.912;6.940;2023-07-30T06:38:29;15.98;;;4.90;;
57395;SDS011;43222;52.912;6.940;2023-07-30T06:40:55;14.43;;;5.50;;
57395;SDS011;43222;52.912;6.940;2023-07-30T06:43:24;18.13;;;5.57;;
57395;SDS011;43222;52.912;6.940;2023-07-30T06:45:50;16.85;;;5.55;;
57395;SDS011;43222;52.912;6.940;2023-07-30T06:48:16;19.02;;;5.32;;
57395;SDS011;43222;52.912;6.940;2023-07-30T06:50:42;17.92;;;4.80;;
57395;SDS011;43222;52.912;6.940;2023-07-30T06:53:08;21.20;;;5.28;;
57395;SDS011;43222;52.912;6.940;2023-07-30T06:55:35;19.98;;;5.03;;
57395;SDS011;43222;52.912;6.940;2023-07-30T06:58:01;20.45;;;5.38;;
57395;SDS011;43222;52.912;6.940;2023-07-30T07:00:27;17.13;;;5.05;;
57395;SDS011;43222;52.912;6.940;2023-07-30T07:02:53;21.05;;;4.97;;
57395;SDS011;43222;52.912;6.940;2023-07-30T07:05:19;20.10;;;5.22;;
57395;SDS011;43222;52.912;6.940;2023-07-30T07:07:45;22.33;;;5.63;;
57395;SDS011;43222;52.912;6.940;2023-07-30T07:10:11;17.15;;;5.28;;
57395;SDS011;43222;52.912;6.940;2023-07-30T07:12:38;17.88;;;4.38;;
57395;SDS011;43222;52.912;6.940;2023-07-30T07:15:05;20.10;;;5.13;;
57395;SDS011;43222;52.912;6.940;2023-07-30T07:17:31;17.95;;;5.28;;
57395;SDS011;43222;52.912;6.940;2023-07-30T07:19:57;16.92;;;4.68;;
57395;SDS011;43222;52.912;6.940;2023-07-30T07:22:23;17.45;;;4.57;;
57395;SDS011;43222;52.912;6.940;2023-07-30T07:24:51;15.93;;;5.07;;
57395;SDS011;43222;52.912;6.940;2023-07-30T07:27:20;19.67;;;5.10;;
57395;SDS011;43222;52.912;6.940;2023-07-30T07:29:48;20.65;;;5.05;;
57395;SDS011;43222;52.912;6.940;2023-07-30T07:32:14;19.42;;;4.53;;
57395;SDS011;43222;52.912;6.940;2023-07-30T07:34:40;21.38;;;5.03;;
57395;SDS011;43222;52.912;6.940;2023-07-30T07:37:06;19.30;;;4.70;;
57395;SDS011;43222;52.912;6.940;2023-07-30T07:39:33;17.30;;;4.22;;
57395;SDS011;43222;52.912;6.940;2023-07-30T07:41:59;18.63;;;4.20;;
57395;SDS011;43222;52.912;6.940;2023-07-30T07:44:25;13.95;;;3.65;;
57395;SDS011;43222;52.912;6.940;2023-07-30T07:46:51;14.73;;;3.85;;
57395;SDS011;43222;52.912;6.940;2023-07-30T07:49:17;16.88;;;3.78;;
57395;SDS011;43222;52.912;6.940;2023-07-30T07:51:44;17.45;;;4.60;;
57395;SDS011;43222;52.912;6.940;2023-07-30T07:54:10;21.90;;;3.95;;
57395;SDS011;43222;52.912;6.940;2023-07-30T07:56:36;22.70;;;4.50;;
57395;SDS011;43222;52.912;6.940;2023-07-30T07:59:02;17.50;;;3.83;;
57395;SDS011;43222;52.912;6.940;2023-07-30T08:01:28;17.92;;;3.95;;
57395;SDS011;43222;52.912;6.940;2023-07-30T08:03:54;16.05;;;5.05;;
57395;SDS011;43222;52.912;6.940;2023-07-30T08:06:21;15.82;;;3.78;;
57395;SDS011;43222;52.912;6.940;2023-07-30T08:08:47;14.73;;;3.75;;
57395;SDS011;43222;52.912;6.940;2023-07-30T08:11:13;15.85;;;3.88;;
57395;SDS011;43222;52.912;6.940;2023-07-30T08:13:39;15.88;;;4.18;;
57395;SDS011;43222;52.912;6.940;2023-07-30T08:16:05;16.58;;;3.50;;
57395;SDS011;43222;52.912;6.940;2023-07-30T08:18:31;19.42;;;4.35;;
57395;SDS011;43222;52.912;6.940;2023-07-30T08:20:57;22.60;;;4.97;;
57395;SDS011;43222;52.912;6.940;2023-07-30T08:23:23;14.50;;;3.80;;
57395;SDS011;43222;52.912;6.940;2023-07-30T08:25:49;14.45;;;3.70;;
57395;SDS011;43222;52.912;6.940;2023-07-30T08:28:15;16.38;;;4.00;;
57395;SDS011;43222;52.912;6.940;2023-07-30T08:30:41;13.60;;;3.50;;
57395;SDS011;43222;52.912;6.940;2023-07-30T08:33:07;15.02;;;3.92;;
57395;SDS011;43222;52.912;6.940;2023-07-30T08:35:33;15.95;;;3.72;;
57395;SDS011;43222;52.912;6.940;2023-07-30T08:37:59;16.92;;;3.88;;
57395;SDS011;43222;52.912;6.940;2023-07-30T08:40:25;15.10;;;3.60;;
57395;SDS011;43222;52.912;6.940;2023-07-30T08:42:51;17.02;;;3.13;;
57395;SDS011;43222;52.912;6.940;2023-07-30T08:45:18;15.38;;;3.63;;
57395;SDS011;43222;52.912;6.940;2023-07-30T08:47:44;14.07;;;3.22;;
57395;SDS011;43222;52.912;6.940;2023-07-30T08:50:10;16.90;;;3.38;;
57395;SDS011;43222;52.912;6.940;2023-07-30T08:52:36;17.02;;;3.53;;
57395;SDS011;43222;52.912;6.940;2023-07-30T08:55:03;15.27;;;2.65;;
57395;SDS011;43222;52.912;6.940;2023-07-30T08:57:30;13.55;;;3.17;;
57395;SDS011;43222;52.912;6.940;2023-07-30T09:00:03;14.80;;;2.90;;
57395;SDS011;43222;52.912;6.940;2023-07-30T09:02:31;15.25;;;3.35;;
57395;SDS011;43222;52.912;6.940;2023-07-30T09:05:00;14.02;;;3.03;;
57395;SDS011;43222;52.912;6.940;2023-07-30T09:07:27;13.13;;;3.25;;
57395;SDS011;43222;52.912;6.940;2023-07-30T09:09:53;18.55;;;2.90;;
57395;SDS011;43222;52.912;6.940;2023-07-30T09:12:19;13.68;;;2.78;;
57395;SDS011;43222;52.912;6.940;2023-07-30T09:14:46;15.68;;;3.53;;
57395;SDS011;43222;52.912;6.940;2023-07-30T09:17:17;13.07;;;2.78;;
57395;SDS011;43222;52.912;6.940;2023-07-30T09:19:43;16.17;;;3.53;;
57395;SDS011;43222;52.912;6.940;2023-07-30T09:22:12;13.40;;;3.08;;
57395;SDS011;43222;52.912;6.940;2023-07-30T09:24:44;13.18;;;3.13;;
57395;SDS011;43222;52.912;6.940;2023-07-30T09:27:10;13.18;;;3.10;;
57395;SDS011;43222;52.912;6.940;2023-07-30T09:29:36;13.38;;;3.45;;
57395;SDS011;43222;52.912;6.940;2023-07-30T09:32:02;13.75;;;3.35;;
57395;SDS011;43222;52.912;6.940;2023-07-30T09:34:28;13.02;;;4.10;;
57395;SDS011;43222;52.912;6.940;2023-07-30T09:36:55;14.15;;;3.42;;
57395;SDS011;43222;52.912;6.940;2023-07-30T09:39:23;16.13;;;3.90;;
57395;SDS011;43222;52.912;6.940;2023-07-30T09:41:53;15.57;;;3.70;;
57395;SDS011;43222;52.912;6.940;2023-07-30T09:44:25;13.40;;;3.65;;
57395;SDS011;43222;52.912;6.940;2023-07-30T09:46:51;13.82;;;3.65;;
57395;SDS011;43222;52.912;6.940;2023-07-30T09:49:17;18.73;;;4.20;;
57395;SDS011;43222;52.912;6.940;2023-07-30T09:51:44;13.55;;;3.58;;
57395;SDS011;43222;52.912;6.940;2023-07-30T09:54:11;37.53;;;5.97;;
57395;SDS011;43222;52.912;6.940;2023-07-30T09:56:39;13.60;;;3.35;;
57395;SDS011;43222;52.912;6.940;2023-07-30T09:59:05;12.48;;;3.25;;
57395;SDS011;43222;52.912;6.940;2023-07-30T10:01:53;12.90;;;3.45;;
57395;SDS011;43222;52.912;6.940;2023-07-30T10:04:21;13.57;;;3.00;;
57395;SDS011;43222;52.912;6.940;2023-07-30T10:06:51;10.82;;;2.63;;
57395;SDS011;43222;52.912;6.940;2023-07-30T10:09:19;16.70;;;2.58;;
57395;SDS011;43222;52.912;6.940;2023-07-30T10:11:46;15.68;;;2.90;;
57395;SDS011;43222;52.912;6.940;2023-07-30T10:14:13;16.05;;;2.50;;
57395;SDS011;43222;52.912;6.940;2023-07-30T10:16:49;9.82;;;2.10;;
57395;SDS011;43222;52.912;6.940;2023-07-30T10:19:15;10.40;;;2.28;;
57395;SDS011;43222;52.912;6.940;2023-07-30T10:21:41;9.00;;;2.10;;
57395;SDS011;43222;52.912;6.940;2023-07-30T10:24:08;7.88;;;2.00;;
57395;SDS011;43222;52.912;6.940;2023-07-30T10:26:35;10.35;;;2.40;;
57395;SDS011;43222;52.912;6.940;2023-07-30T10:29:12;8.15;;;1.90;;
57395;SDS011;43222;52.912;6.940;2023-07-30T10:31:39;8.55;;;1.75;;
57395;SDS011;43222;52.912;6.940;2023-07-30T10:34:09;8.50;;;2.10;;
57395;SDS011;43222;52.912;6.940;2023-07-30T10:36:46;10.68;;;2.10;;
57395;SDS011;43222;52.912;6.940;2023-07-30T10:41:38;7.20;;;1.88;;
57395;SDS011;43222;52.912;6.940;2023-07-30T10:44:04;8.32;;;2.22;;
57395;SDS011;43222;52.912;6.940;2023-07-30T10:46:30;12.13;;;2.10;;
57395;SDS011;43222;52.912;6.940;2023-07-30T10:48:57;11.60;;;2.08;;
57395;SDS011;43222;52.912;6.940;2023-07-30T10:51:23;10.25;;;2.03;;
57395;SDS011;43222;52.912;6.940;2023-07-30T10:53:50;14.00;;;2.30;;
57395;SDS011;43222;52.912;6.940;2023-07-30T10:56:17;10.88;;;2.38;;
57395;SDS011;43222;52.912;6.940;2023-07-30T10:58:43;11.73;;;2.38;;
57395;SDS011;43222;52.912;6.940;2023-07-30T11:01:14;10.43;;;2.30;;
57395;SDS011;43222;52.912;6.940;2023-07-30T11:03:40;16.73;;;2.28;;
57395;SDS011;43222;52.912;6.940;2023-07-30T11:06:06;10.25;;;2.10;;
57395;SDS011;43222;52.912;6.940;2023-07-30T11:08:36;10.45;;;2.10;;
57395;SDS011;43222;52.912;6.940;2023-07-30T11:11:03;10.95;;;2.30;;
57395;SDS011;43222;52.912;6.940;2023-07-30T11:13:34;9.30;;;2.40;;
57395;SDS011;43222;52.912;6.940;2023-07-30T11:16:00;12.23;;;2.67;;
57395;SDS011;43222;52.912;6.940;2023-07-30T11:18:27;10.18;;;2.30;;
57395;SDS011;43222;52.912;6.940;2023-07-30T11:23:29;9.13;;;2.08;;
57395;SDS011;43222;52.912;6.940;2023-07-30T11:25:55;9.13;;;2.60;;
57395;SDS011;43222;52.912;6.940;2023-07-30T11:28:28;7.68;;;2.00;;
57395;SDS011;43222;52.912;6.940;2023-07-30T11:30:55;11.52;;;2.80;;
57395;SDS011;43222;52.912;6.940;2023-07-30T11:33:22;10.73;;;2.60;;
57395;SDS011;43222;52.912;6.940;2023-07-30T11:35:48;10.75;;;2.60;;
57395;SDS011;43222;52.912;6.940;2023-07-30T11:38:14;9.20;;;2.33;;
57395;SDS011;43222;52.912;6.940;2023-07-30T11:40:40;10.82;;;2.15;;
57395;SDS011;43222;52.912;6.940;2023-07-30T11:43:06;10.02;;;2.30;;
57395;SDS011;43222;52.912;6.940;2023-07-30T11:45:32;10.35;;;1.80;;
57395;SDS011;43222;52.912;6.940;2023-07-30T11:48:10;8.70;;;2.05;;
57395;SDS011;43222;52.912;6.940;2023-07-30T11:50:49;10.30;;;2.17;;
57395;SDS011;43222;52.912;6.940;2023-07-30T11:53:15;12.90;;;2.05;;
57395;SDS011;43222;52.912;6.940;2023-07-30T11:55:42;11.00;;;2.00;;
57395;SDS011;43222;52.912;6.940;2023-07-30T11:58:09;8.25;;;1.80;;
57395;SDS011;43222;52.912;6.940;2023-07-30T12:00:36;8.77;;;1.90;;
57395;SDS011;43222;52.912;6.940;2023-07-30T12:03:02;9.55;;;2.00;;
57395;SDS011;43222;52.912;6.940;2023-07-30T12:05:35;8.38;;;1.80;;
57395;SDS011;43222;52.912;6.940;2023-07-30T12:08:01;10.90;;;2.28;;
57395;SDS011;43222;52.912;6.940;2023-07-30T12:10:40;8.85;;;1.88;;
57395;SDS011;43222;52.912;6.940;2023-07-30T12:13:25;7.32;;;1.98;;
57395;SDS011;43222;52.912;6.940;2023-07-30T12:15:52;9.48;;;1.73;;
57395;SDS011;43222;52.912;6.940;2023-07-30T12:18:18;11.18;;;2.10;;
57395;SDS011;43222;52.912;6.940;2023-07-30T12:20:45;9.35;;;1.88;;
57395;SDS011;43222;52.912;6.940;2023-07-30T12:23:11;7.93;;;2.03;;
57395;SDS011;43222;52.912;6.940;2023-07-30T12:25:37;10.02;;;1.83;;
57395;SDS011;43222;52.912;6.940;2023-07-30T12:28:04;8.43;;;1.92;;
57395;SDS011;43222;52.912;6.940;2023-07-30T12:30:30;9.00;;;1.85;;
57395;SDS011;43222;52.912;6.940;2023-07-30T12:32:56;7.45;;;1.70;;
57395;SDS011;43222;52.912;6.940;2023-07-30T12:35:23;9.95;;;1.95;;
57395;SDS011;43222;52.912;6.940;2023-07-30T12:37:49;8.38;;;2.35;;
57395;SDS011;43222;52.912;6.940;2023-07-30T12:40:16;8.40;;;1.75;;
57395;SDS011;43222;52.912;6.940;2023-07-30T12:42:42;9.52;;;1.88;;
57395;SDS011;43222;52.912;6.940;2023-07-30T12:45:08;13.00;;;2.53;;
57395;SDS011;43222;52.912;6.940;2023-07-30T12:47:34;9.45;;;2.13;;
57395;SDS011;43222;52.912;6.940;2023-07-30T12:50:01;9.93;;;2.00;;
57395;SDS011;43222;52.912;6.940;2023-07-30T12:52:28;8.15;;;2.10;;
57395;SDS011;43222;52.912;6.940;2023-07-30T12:54:54;10.63;;;2.38;;
57395;SDS011;43222;52.912;6.940;2023-07-30T12:57:20;11.60;;;2.03;;
57395;SDS011;43222;52.912;6.940;2023-07-30T12:59:46;7.72;;;1.90;;
57395;SDS011;43222;52.912;6.940;2023-07-30T13:02:12;8.77;;;1.73;;
57395;SDS011;43222;52.912;6.940;2023-07-30T13:04:38;9.30;;;2.17;;
57395;SDS011;43222;52.912;6.940;2023-07-30T13:07:04;8.90;;;1.70;;
57395;SDS011;43222;52.912;6.940;2023-07-30T13:09:30;10.40;;;1.60;;
57395;SDS011;43222;52.912;6.940;2023-07-30T13:11:57;10.32;;;1.65;;
57395;SDS011;43222;52.912;6.940;2023-07-30T13:14:23;10.20;;;2.22;;
57395;SDS011;43222;52.912;6.940;2023-07-30T13:16:49;11.25;;;2.42;;
57395;SDS011;43222;52.912;6.940;2023-07-30T13:19:15;8.75;;;1.30;;
57395;SDS011;43222;52.912;6.940;2023-07-30T13:21:41;6.50;;;1.52;;
57395;SDS011;43222;52.912;6.940;2023-07-30T13:24:07;8.75;;;1.50;;
57395;SDS011;43222;52.912;6.940;2023-07-30T13:26:34;6.68;;;1.38;;
57395;SDS011;43222;52.912;6.940;2023-07-30T13:29:01;6.20;;;1.40;;
57395;SDS011;43222;52.912;6.940;2023-07-30T13:31:27;6.68;;;1.33;;
57395;SDS011;43222;52.912;6.940;2023-07-30T13:33:53;7.57;;;1.58;;
57395;SDS011;43222;52.912;6.940;2023-07-30T13:36:19;4.75;;;1.10;;
57395;SDS011;43222;52.912;6.940;2023-07-30T13:38:46;7.82;;;1.48;;
57395;SDS011;43222;52.912;6.940;2023-07-30T13:41:12;6.53;;;1.50;;
57395;SDS011;43222;52.912;6.940;2023-07-30T13:43:38;7.45;;;1.80;;
57395;SDS011;43222;52.912;6.940;2023-07-30T13:46:05;8.25;;;2.00;;
57395;SDS011;43222;52.912;6.940;2023-07-30T13:48:31;6.50;;;1.60;;
57395;SDS011;43222;52.912;6.940;2023-07-30T13:50:57;9.80;;;2.05;;
57395;SDS011;43222;52.912;6.940;2023-07-30T13:53:23;9.20;;;2.15;;
57395;SDS011;43222;52.912;6.940;2023-07-30T13:55:49;9.18;;;2.03;;
57395;SDS011;43222;52.912;6.940;2023-07-30T13:58:15;9.52;;;1.85;;
57395;SDS011;43222;52.912;6.940;2023-07-30T14:00:41;7.70;;;1.70;;
57395;SDS011;43222;52.912;6.940;2023-07-30T14:03:07;8.35;;;1.60;;
57395;SDS011;43222;52.912;6.940;2023-07-30T14:05:34;7.57;;;1.45;;
57395;SDS011;43222;52.912;6.940;2023-07-30T14:08:00;6.32;;;1.30;;
57395;SDS011;43222;52.912;6.940;2023-07-30T14:10:26;8.70;;;1.77;;
57395;SDS011;43222;52.912;6.940;2023-07-30T14:12:52;7.80;;;1.67;;
57395;SDS011;43222;52.912;6.940;2023-07-30T14:15:18;9.15;;;1.52;;
57395;SDS011;43222;52.912;6.940;2023-07-30T14:17:44;7.60;;;1.60;;
57395;SDS011;43222;52.912;6.940;2023-07-30T14:20:10;10.10;;;1.80;;
57395;SDS011;43222;52.912;6.940;2023-07-30T14:22:37;7.45;;;1.77;;
57395;SDS011;43222;52.912;6.940;2023-07-30T14:25:03;9.38;;;1.80;;
57395;SDS011;43222;52.912;6.940;2023-07-30T14:27:29;7.45;;;1.52;;
57395;SDS011;43222;52.912;6.940;2023-07-30T14:29:55;9.27;;;1.40;;
57395;SDS011;43222;52.912;6.940;2023-07-30T14:32:22;8.38;;;1.38;;
57395;SDS011;43222;52.912;6.940;2023-07-30T14:34:48;8.05;;;1.50;;
57395;SDS011;43222;52.912;6.940;2023-07-30T14:37:14;6.95;;;1.73;;
57395;SDS011;43222;52.912;6.940;2023-07-30T14:39:40;6.15;;;1.30;;